This is the latest recevied weather packets stored in our database for station/object 9W2CHF-4. If no packets are shown the sender has not sent any weather packets the latest 10 day(s).
| Time | Temp. | Humidity | Pressure | Rain* | Wind** | Luminosity | Snow |
|---|---|---|---|---|---|---|---|
| 1778142226 | 32.78° C | 59% | 1006.6 hPa | - | - | - | - |
| 1778141325 | 32.22° C | 52% | 1006.6 hPa | - | - | - | - |
| 1778140425 | 32.22° C | 52% | 1006.8 hPa | - | - | - | - |
| 1778139525 | 32.22° C | 54% | 1006.8 hPa | - | - | - | - |
| 1778138625 | 32.22° C | 57% | 1007 hPa | - | - | - | - |
| 1778137725 | 32.22° C | 59% | 1007.3 hPa | - | - | - | - |
| 1778136824 | 31.67° C | 57% | 1007.4 hPa | - | - | - | - |
| 1778135924 | 32.22° C | 60% | 1007.8 hPa | - | - | - | - |
| 1778135023 | 32.22° C | 65% | 1008.1 hPa | - | - | - | - |
| 1778134123 | 32.78° C | 74% | 1008.1 hPa | - | - | - | - |
| 1778133222 | 32.78° C | 84% | 1008.1 hPa | - | - | - | - |
| 1778132322 | 32.22° C | 87% | 1008.3 hPa | - | - | - | - |
| 1778131422 | 32.22° C | 89% | 1008.5 hPa | - | - | - | - |
| 1778130522 | 32.22° C | 88% | 1008.7 hPa | - | - | - | - |
| 1778129622 | 32.22° C | 86% | 1009 hPa | - | - | - | - |
| 1778128721 | 31.67° C | 85% | 1009.4 hPa | - | - | - | - |
| 1778127821 | 31.67° C | 83% | 1009.5 hPa | - | - | - | - |
| 1778126921 | 31.67° C | 86% | 1009.5 hPa | - | - | - | - |
| 1778126021 | 31.67° C | 68% | 1009.7 hPa | - | - | - | - |
| 1778125120 | 31.11° C | 60% | 1009.8 hPa | - | - | - | - |
| 1778107116 | 31.11° C | 91% | 1008.8 hPa | - | - | - | - |
| 1778101715 | 31.11° C | 91% | 1008.1 hPa | - | - | - | - |
| 1778100819 | 31.11° C | 91% | 1008 hPa | - | - | - | - |
| 1778099918 | 31.67° C | 91% | 1007.9 hPa | - | - | - | - |
| 1778096318 | 31.67° C | 91% | 1008.3 hPa | - | - | - | - |
* Rain since midnight (hover to see other rain measurements)
** Current wind speed in m/s (hover to see current wind gust speed)